sensor_id;sensor_type;location;lat;lon;timestamp;temperature;humidity
7194;DHT22;3638;48.820;9.244;2023-05-10T00:01:36;14.70;99.90
7194;DHT22;3638;48.820;9.244;2023-05-10T00:04:03;14.70;99.90
7194;DHT22;3638;48.820;9.244;2023-05-10T00:06:30;14.50;99.90
7194;DHT22;3638;48.820;9.244;2023-05-10T00:08:57;14.30;99.90
7194;DHT22;3638;48.820;9.244;2023-05-10T00:11:24;14.10;99.90
7194;DHT22;3638;48.820;9.244;2023-05-10T00:13:51;14.10;99.90
7194;DHT22;3638;48.820;9.244;2023-05-10T00:16:18;14.00;99.90
7194;DHT22;3638;48.820;9.244;2023-05-10T00:18:46;14.00;99.90
7194;DHT22;3638;48.820;9.244;2023-05-10T00:21:13;14.00;99.90
7194;DHT22;3638;48.820;9.244;2023-05-10T00:31:02;13.90;99.90
7194;DHT22;3638;48.820;9.244;2023-05-10T00:33:29;13.80;99.90
7194;DHT22;3638;48.820;9.244;2023-05-10T00:35:57;13.80;99.90
7194;DHT22;3638;48.820;9.244;2023-05-10T00:38:24;13.90;99.90
7194;DHT22;3638;48.820;9.244;2023-05-10T00:40:51;13.90;99.90
7194;DHT22;3638;48.820;9.244;2023-05-10T00:48:13;13.80;99.90
7194;DHT22;3638;48.820;9.244;2023-05-10T00:50:40;13.80;99.90
7194;DHT22;3638;48.820;9.244;2023-05-10T00:53:08;13.70;99.90
7194;DHT22;3638;48.820;9.244;2023-05-10T00:55:36;13.70;99.90
7194;DHT22;3638;48.820;9.244;2023-05-10T00:58:03;13.60;99.90
7194;DHT22;3638;48.820;9.244;2023-05-10T01:00:32;13.80;99.90
7194;DHT22;3638;48.820;9.244;2023-05-10T01:03:00;13.60;99.90
7194;DHT22;3638;48.820;9.244;2023-05-10T01:07:54;13.60;99.90
7194;DHT22;3638;48.820;9.244;2023-05-10T01:12:50;13.50;99.90
7194;DHT22;3638;48.820;9.244;2023-05-10T01:15:17;13.60;99.90
7194;DHT22;3638;48.820;9.244;2023-05-10T01:17:46;13.50;99.90
7194;DHT22;3638;48.820;9.244;2023-05-10T01:20:14;13.50;99.90
7194;DHT22;3638;48.820;9.244;2023-05-10T01:22:55;13.50;99.90
7194;DHT22;3638;48.820;9.244;2023-05-10T01:26:07;13.50;99.90
7194;DHT22;3638;48.820;9.244;2023-05-10T01:32:06;13.50;99.90
7194;DHT22;3638;48.820;9.244;2023-05-10T01:34:47;13.50;99.90
7194;DHT22;3638;48.820;9.244;2023-05-10T01:37:22;13.60;99.90
7194;DHT22;3638;48.820;9.244;2023-05-10T01:40:01;13.60;99.90
7194;DHT22;3638;48.820;9.244;2023-05-10T01:42:36;13.50;99.90
7194;DHT22;3638;48.820;9.244;2023-05-10T01:45:14;13.50;99.90
7194;DHT22;3638;48.820;9.244;2023-05-10T01:47:51;13.50;99.90
7194;DHT22;3638;48.820;9.244;2023-05-10T01:50:26;13.60;99.90
7194;DHT22;3638;48.820;9.244;2023-05-10T01:52:56;13.60;99.90
7194;DHT22;3638;48.820;9.244;2023-05-10T01:55:27;13.60;99.90
7194;DHT22;3638;48.820;9.244;2023-05-10T01:58:00;13.60;99.90
7194;DHT22;3638;48.820;9.244;2023-05-10T02:00:29;13.60;99.90
7194;DHT22;3638;48.820;9.244;2023-05-10T02:03:00;13.60;99.90
7194;DHT22;3638;48.820;9.244;2023-05-10T02:05:32;13.70;99.90
7194;DHT22;3638;48.820;9.244;2023-05-10T02:08:01;13.60;99.90
7194;DHT22;3638;48.820;9.244;2023-05-10T02:10:30;13.50;99.90
7194;DHT22;3638;48.820;9.244;2023-05-10T02:12:58;13.60;99.90
7194;DHT22;3638;48.820;9.244;2023-05-10T02:15:26;13.60;99.90
7194;DHT22;3638;48.820;9.244;2023-05-10T02:17:55;13.60;99.90
7194;DHT22;3638;48.820;9.244;2023-05-10T02:20:25;13.50;99.90
7194;DHT22;3638;48.820;9.244;2023-05-10T02:22:54;18.00;99.90
7194;DHT22;3638;48.820;9.244;2023-05-10T02:25:23;13.50;99.90
7194;DHT22;3638;48.820;9.244;2023-05-10T02:27:52;13.40;99.90
7194;DHT22;3638;48.820;9.244;2023-05-10T02:30:21;13.50;99.90
7194;DHT22;3638;48.820;9.244;2023-05-10T02:32:49;13.40;99.90
7194;DHT22;3638;48.820;9.244;2023-05-10T02:35:17;13.40;99.90
7194;DHT22;3638;48.820;9.244;2023-05-10T02:37:46;13.50;99.90
7194;DHT22;3638;48.820;9.244;2023-05-10T02:40:15;13.50;99.90
7194;DHT22;3638;48.820;9.244;2023-05-10T02:42:44;13.50;99.90
7194;DHT22;3638;48.820;9.244;2023-05-10T02:45:21;13.50;99.90
7194;DHT22;3638;48.820;9.244;2023-05-10T02:50:17;13.50;99.90
7194;DHT22;3638;48.820;9.244;2023-05-10T02:52:49;13.40;99.90
7194;DHT22;3638;48.820;9.244;2023-05-10T02:55:20;13.50;99.90
7194;DHT22;3638;48.820;9.244;2023-05-10T02:57:52;13.50;99.90
7194;DHT22;3638;48.820;9.244;2023-05-10T03:00:22;13.60;99.90
7194;DHT22;3638;48.820;9.244;2023-05-10T03:02:50;13.50;99.90
7194;DHT22;3638;48.820;9.244;2023-05-10T03:07:47;13.60;99.90
7194;DHT22;3638;48.820;9.244;2023-05-10T03:10:14;13.60;99.90
7194;DHT22;3638;48.820;9.244;2023-05-10T03:12:52;13.60;99.90
7194;DHT22;3638;48.820;9.244;2023-05-10T03:15:31;13.60;99.90
7194;DHT22;3638;48.820;9.244;2023-05-10T03:18:06;13.60;99.90
7194;DHT22;3638;48.820;9.244;2023-05-10T03:20:36;13.60;99.90
7194;DHT22;3638;48.820;9.244;2023-05-10T03:23:16;13.50;99.90
7194;DHT22;3638;48.820;9.244;2023-05-10T03:25:48;13.60;99.90
7194;DHT22;3638;48.820;9.244;2023-05-10T03:28:16;13.70;99.90
7194;DHT22;3638;48.820;9.244;2023-05-10T03:30:44;13.70;99.90
7194;DHT22;3638;48.820;9.244;2023-05-10T03:38:07;13.60;99.90
7194;DHT22;3638;48.820;9.244;2023-05-10T03:40:35;13.60;99.90
7194;DHT22;3638;48.820;9.244;2023-05-10T03:43:02;13.60;99.90
7194;DHT22;3638;48.820;9.244;2023-05-10T03:45:29;13.60;99.90
7194;DHT22;3638;48.820;9.244;2023-05-10T03:47:57;13.70;99.90
7194;DHT22;3638;48.820;9.244;2023-05-10T03:50:24;13.60;99.90
7194;DHT22;3638;48.820;9.244;2023-05-10T03:52:52;13.50;99.90
7194;DHT22;3638;48.820;9.244;2023-05-10T03:57:47;13.70;99.90
7194;DHT22;3638;48.820;9.244;2023-05-10T04:00:15;13.70;99.90
7194;DHT22;3638;48.820;9.244;2023-05-10T04:02:42;13.70;99.90
7194;DHT22;3638;48.820;9.244;2023-05-10T04:07:37;13.70;99.90
7194;DHT22;3638;48.820;9.244;2023-05-10T04:10:05;13.70;99.90
7194;DHT22;3638;48.820;9.244;2023-05-10T04:15:01;13.90;99.90
7194;DHT22;3638;48.820;9.244;2023-05-10T04:17:28;13.80;99.90
7194;DHT22;3638;48.820;9.244;2023-05-10T04:19:56;13.70;99.90
7194;DHT22;3638;48.820;9.244;2023-05-10T04:22:23;13.70;99.90
7194;DHT22;3638;48.820;9.244;2023-05-10T04:29:44;13.70;99.90
7194;DHT22;3638;48.820;9.244;2023-05-10T04:32:12;13.70;99.90
7194;DHT22;3638;48.820;9.244;2023-05-10T04:34:41;13.90;99.90
7194;DHT22;3638;48.820;9.244;2023-05-10T04:42:03;13.80;99.90
7194;DHT22;3638;48.820;9.244;2023-05-10T04:44:31;14.00;99.90
7194;DHT22;3638;48.820;9.244;2023-05-10T04:46:58;13.90;99.90
7194;DHT22;3638;48.820;9.244;2023-05-10T04:49:26;13.80;99.90
7194;DHT22;3638;48.820;9.244;2023-05-10T04:51:53;13.90;99.90
7194;DHT22;3638;48.820;9.244;2023-05-10T04:54:20;13.90;99.90
7194;DHT22;3638;48.820;9.244;2023-05-10T05:01:41;13.90;99.90
7194;DHT22;3638;48.820;9.244;2023-05-10T05:04:08;13.90;99.90
7194;DHT22;3638;48.820;9.244;2023-05-10T05:06:36;13.90;99.90
7194;DHT22;3638;48.820;9.244;2023-05-10T05:09:03;14.00;99.90
7194;DHT22;3638;48.820;9.244;2023-05-10T05:11:30;14.00;99.90
7194;DHT22;3638;48.820;9.244;2023-05-10T05:16:25;14.20;99.90
7194;DHT22;3638;48.820;9.244;2023-05-10T05:21:19;14.50;99.90
7194;DHT22;3638;48.820;9.244;2023-05-10T05:23:48;14.60;99.90
7194;DHT22;3638;48.820;9.244;2023-05-10T05:28:42;14.80;99.90
7194;DHT22;3638;48.820;9.244;2023-05-10T05:31:09;14.80;99.90
7194;DHT22;3638;48.820;9.244;2023-05-10T05:33:36;14.70;99.90
7194;DHT22;3638;48.820;9.244;2023-05-10T05:36:05;14.80;99.90
7194;DHT22;3638;48.820;9.244;2023-05-10T05:41:01;15.10;99.90
7194;DHT22;3638;48.820;9.244;2023-05-10T05:43:28;14.90;99.90
7194;DHT22;3638;48.820;9.244;2023-05-10T05:45:55;15.00;99.90
7194;DHT22;3638;48.820;9.244;2023-05-10T05:48:23;15.00;99.90
7194;DHT22;3638;48.820;9.244;2023-05-10T05:50:50;15.00;99.90
7194;DHT22;3638;48.820;9.244;2023-05-10T05:53:21;15.00;99.90
7194;DHT22;3638;48.820;9.244;2023-05-10T05:55:51;15.40;99.90
7194;DHT22;3638;48.820;9.244;2023-05-10T05:58:20;15.60;99.90
7194;DHT22;3638;48.820;9.244;2023-05-10T06:08:09;15.40;99.90
7194;DHT22;3638;48.820;9.244;2023-05-10T06:10:36;15.40;99.90
7194;DHT22;3638;48.820;9.244;2023-05-10T06:15:33;15.40;99.90
7194;DHT22;3638;48.820;9.244;2023-05-10T06:18:00;15.20;99.90
7194;DHT22;3638;48.820;9.244;2023-05-10T06:22:54;15.30;99.90
7194;DHT22;3638;48.820;9.244;2023-05-10T06:25:21;15.40;99.90
7194;DHT22;3638;48.820;9.244;2023-05-10T06:27:47;15.30;99.90
7194;DHT22;3638;48.820;9.244;2023-05-10T06:30:15;15.20;99.90
7194;DHT22;3638;48.820;9.244;2023-05-10T06:32:43;15.30;99.90
7194;DHT22;3638;48.820;9.244;2023-05-10T06:35:10;15.30;99.90
7194;DHT22;3638;48.820;9.244;2023-05-10T06:37:37;15.30;99.90
7194;DHT22;3638;48.820;9.244;2023-05-10T06:40:06;15.30;99.90
7194;DHT22;3638;48.820;9.244;2023-05-10T06:42:34;15.40;99.90
7194;DHT22;3638;48.820;9.244;2023-05-10T06:45:01;15.50;99.90
7194;DHT22;3638;48.820;9.244;2023-05-10T06:47:28;15.40;99.90
7194;DHT22;3638;48.820;9.244;2023-05-10T06:49:56;15.50;99.90
7194;DHT22;3638;48.820;9.244;2023-05-10T06:52:23;15.50;99.90
7194;DHT22;3638;48.820;9.244;2023-05-10T06:54:50;15.50;99.90
7194;DHT22;3638;48.820;9.244;2023-05-10T06:57:17;15.70;99.90
7194;DHT22;3638;48.820;9.244;2023-05-10T06:59:44;15.70;99.90
7194;DHT22;3638;48.820;9.244;2023-05-10T07:02:11;15.70;99.90
7194;DHT22;3638;48.820;9.244;2023-05-10T07:07:07;15.90;99.90
7194;DHT22;3638;48.820;9.244;2023-05-10T07:09:35;15.90;99.90
7194;DHT22;3638;48.820;9.244;2023-05-10T07:12:02;15.60;99.90
7194;DHT22;3638;48.820;9.244;2023-05-10T07:14:29;15.80;99.90
7194;DHT22;3638;48.820;9.244;2023-05-10T07:16:56;15.70;99.90
7194;DHT22;3638;48.820;9.244;2023-05-10T07:19:23;16.10;99.90
7194;DHT22;3638;48.820;9.244;2023-05-10T07:21:49;16.30;99.90
7194;DHT22;3638;48.820;9.244;2023-05-10T07:24:18;16.30;99.90
7194;DHT22;3638;48.820;9.244;2023-05-10T07:31:39;16.60;99.90
7194;DHT22;3638;48.820;9.244;2023-05-10T07:34:07;16.60;99.90
7194;DHT22;3638;48.820;9.244;2023-05-10T07:36:34;16.70;99.90
7194;DHT22;3638;48.820;9.244;2023-05-10T07:39:01;16.70;99.90
7194;DHT22;3638;48.820;9.244;2023-05-10T07:41:29;16.70;99.90
7194;DHT22;3638;48.820;9.244;2023-05-10T07:43:56;17.00;99.90
7194;DHT22;3638;48.820;9.244;2023-05-10T07:46:23;17.00;99.90
7194;DHT22;3638;48.820;9.244;2023-05-10T07:48:49;17.20;99.90
7194;DHT22;3638;48.820;9.244;2023-05-10T07:51:16;17.50;99.90
7194;DHT22;3638;48.820;9.244;2023-05-10T07:53:43;17.50;99.90
7194;DHT22;3638;48.820;9.244;2023-05-10T07:56:21;17.80;99.90
7194;DHT22;3638;48.820;9.244;2023-05-10T07:58:51;17.70;99.90
7194;DHT22;3638;48.820;9.244;2023-05-10T08:06:14;17.20;99.90
7194;DHT22;3638;48.820;9.244;2023-05-10T08:08:41;17.10;99.90
7194;DHT22;3638;48.820;9.244;2023-05-10T08:11:08;16.80;99.90
7194;DHT22;3638;48.820;9.244;2023-05-10T08:13:35;16.70;99.90
7194;DHT22;3638;48.820;9.244;2023-05-10T08:16:03;16.50;99.90
7194;DHT22;3638;48.820;9.244;2023-05-10T08:18:30;16.70;99.90
7194;DHT22;3638;48.820;9.244;2023-05-10T08:20:57;16.50;99.90
7194;DHT22;3638;48.820;9.244;2023-05-10T08:23:24;16.50;99.90
7194;DHT22;3638;48.820;9.244;2023-05-10T08:25:51;16.30;99.90
7194;DHT22;3638;48.820;9.244;2023-05-10T08:28:18;16.30;99.90
7194;DHT22;3638;48.820;9.244;2023-05-10T08:30:45;16.40;99.90
7194;DHT22;3638;48.820;9.244;2023-05-10T08:33:13;16.50;99.90
7194;DHT22;3638;48.820;9.244;2023-05-10T08:35:40;16.40;99.90
7194;DHT22;3638;48.820;9.244;2023-05-10T08:38:06;16.40;99.90
7194;DHT22;3638;48.820;9.244;2023-05-10T08:40:34;16.50;99.90
7194;DHT22;3638;48.820;9.244;2023-05-10T08:43:05;16.50;99.90
7194;DHT22;3638;48.820;9.244;2023-05-10T08:45:35;16.50;99.90
7194;DHT22;3638;48.820;9.244;2023-05-10T08:48:05;16.50;99.90
7194;DHT22;3638;48.820;9.244;2023-05-10T08:50:36;16.90;99.90
7194;DHT22;3638;48.820;9.244;2023-05-10T08:53:06;17.10;99.90
7194;DHT22;3638;48.820;9.244;2023-05-10T08:55:36;17.10;99.90
7194;DHT22;3638;48.820;9.244;2023-05-10T08:58:04;17.20;99.90
7194;DHT22;3638;48.820;9.244;2023-05-10T09:00:31;17.20;99.90
7194;DHT22;3638;48.820;9.244;2023-05-10T09:02:59;17.40;99.90
7194;DHT22;3638;48.820;9.244;2023-05-10T09:05:27;17.30;99.90
7194;DHT22;3638;48.820;9.244;2023-05-10T09:07:55;17.80;99.90
7194;DHT22;3638;48.820;9.244;2023-05-10T09:10:22;18.00;99.90
7194;DHT22;3638;48.820;9.244;2023-05-10T09:12:51;18.10;99.90
7194;DHT22;3638;48.820;9.244;2023-05-10T09:15:19;18.10;99.90
7194;DHT22;3638;48.820;9.244;2023-05-10T09:17:47;18.30;99.90
7194;DHT22;3638;48.820;9.244;2023-05-10T09:22:43;18.60;99.90
7194;DHT22;3638;48.820;9.244;2023-05-10T09:25:14;18.70;99.90
7194;DHT22;3638;48.820;9.244;2023-05-10T09:27:45;18.70;99.90
7194;DHT22;3638;48.820;9.244;2023-05-10T09:30:16;18.60;99.90
7194;DHT22;3638;48.820;9.244;2023-05-10T09:32:46;18.80;99.90
7194;DHT22;3638;48.820;9.244;2023-05-10T09:35:15;18.90;99.90
7194;DHT22;3638;48.820;9.244;2023-05-10T09:37:46;18.80;99.90
7194;DHT22;3638;48.820;9.244;2023-05-10T09:40:17;18.70;99.90
7194;DHT22;3638;48.820;9.244;2023-05-10T09:42:51;18.40;99.90
7194;DHT22;3638;48.820;9.244;2023-05-10T09:47:47;18.60;99.90
7194;DHT22;3638;48.820;9.244;2023-05-10T09:50:14;18.70;99.90
7194;DHT22;3638;48.820;9.244;2023-05-10T09:52:48;19.00;99.90
7194;DHT22;3638;48.820;9.244;2023-05-10T09:55:19;19.10;99.90
7194;DHT22;3638;48.820;9.244;2023-05-10T09:57:47;19.10;99.90
7194;DHT22;3638;48.820;9.244;2023-05-10T10:00:18;18.90;99.90
7194;DHT22;3638;48.820;9.244;2023-05-10T10:02:47;18.40;99.90
7194;DHT22;3638;48.820;9.244;2023-05-10T10:05:15;18.30;99.90
7194;DHT22;3638;48.820;9.244;2023-05-10T10:07:42;18.20;99.90
7194;DHT22;3638;48.820;9.244;2023-05-10T10:10:09;18.10;99.90
7194;DHT22;3638;48.820;9.244;2023-05-10T10:12:41;17.90;99.90
7194;DHT22;3638;48.820;9.244;2023-05-10T10:15:08;17.70;99.90
7194;DHT22;3638;48.820;9.244;2023-05-10T10:17:36;17.80;99.90
7194;DHT22;3638;48.820;9.244;2023-05-10T10:20:05;17.80;99.90
7194;DHT22;3638;48.820;9.244;2023-05-10T10:22:33;18.00;99.90
7194;DHT22;3638;48.820;9.244;2023-05-10T10:25:00;18.30;99.90
7194;DHT22;3638;48.820;9.244;2023-05-10T10:27:35;18.30;99.90
7194;DHT22;3638;48.820;9.244;2023-05-10T10:30:16;18.20;99.90
7194;DHT22;3638;48.820;9.244;2023-05-10T10:33:06;18.30;99.90
7194;DHT22;3638;48.820;9.244;2023-05-10T10:38:08;18.20;99.90
7194;DHT22;3638;48.820;9.244;2023-05-10T10:40:35;18.10;99.90
7194;DHT22;3638;48.820;9.244;2023-05-10T10:43:24;18.40;99.90
7194;DHT22;3638;48.820;9.244;2023-05-10T10:46:19;18.30;99.90
7194;DHT22;3638;48.820;9.244;2023-05-10T10:49:07;18.50;99.90
7194;DHT22;3638;48.820;9.244;2023-05-10T10:51:36;18.70;99.90
7194;DHT22;3638;48.820;9.244;2023-05-10T10:54:09;18.70;99.90
7194;DHT22;3638;48.820;9.244;2023-05-10T10:56:37;18.90;99.90
7194;DHT22;3638;48.820;9.244;2023-05-10T10:59:05;18.80;99.90
7194;DHT22;3638;48.820;9.244;2023-05-10T11:01:33;18.60;99.90
7194;DHT22;3638;48.820;9.244;2023-05-10T11:09:13;19.00;99.90
7194;DHT22;3638;48.820;9.244;2023-05-10T11:11:52;19.20;99.90
7194;DHT22;3638;48.820;9.244;2023-05-10T11:14:22;19.10;99.90
7194;DHT22;3638;48.820;9.244;2023-05-10T11:16:49;18.90;99.90
7194;DHT22;3638;48.820;9.244;2023-05-10T11:19:17;18.50;99.90
7194;DHT22;3638;48.820;9.244;2023-05-10T11:21:46;18.90;99.90
7194;DHT22;3638;48.820;9.244;2023-05-10T11:24:16;18.30;99.90
7194;DHT22;3638;48.820;9.244;2023-05-10T11:29:12;17.80;99.90
7194;DHT22;3638;48.820;9.244;2023-05-10T11:31:44;18.10;99.90
7194;DHT22;3638;48.820;9.244;2023-05-10T11:34:15;18.20;99.90
7194;DHT22;3638;48.820;9.244;2023-05-10T11:36:51;18.10;99.90
7194;DHT22;3638;48.820;9.244;2023-05-10T11:39:19;17.90;99.90
7194;DHT22;3638;48.820;9.244;2023-05-10T11:41:48;18.10;99.90
7194;DHT22;3638;48.820;9.244;2023-05-10T11:44:15;18.10;99.90
7194;DHT22;3638;48.820;9.244;2023-05-10T11:46:44;18.60;99.90
7194;DHT22;3638;48.820;9.244;2023-05-10T11:49:11;18.70;99.90
7194;DHT22;3638;48.820;9.244;2023-05-10T11:51:39;18.50;99.90
7194;DHT22;3638;48.820;9.244;2023-05-10T11:54:09;18.50;99.90
7194;DHT22;3638;48.820;9.244;2023-05-10T11:56:37;18.40;99.90
7194;DHT22;3638;48.820;9.244;2023-05-10T11:59:04;18.50;99.90
7194;DHT22;3638;48.820;9.244;2023-05-10T12:01:31;18.20;99.90
7194;DHT22;3638;48.820;9.244;2023-05-10T12:04:00;18.10;99.90
7194;DHT22;3638;48.820;9.244;2023-05-10T12:06:29;18.40;99.90
7194;DHT22;3638;48.820;9.244;2023-05-10T12:08:57;18.50;99.90
7194;DHT22;3638;48.820;9.244;2023-05-10T12:11:25;18.30;99.90
7194;DHT22;3638;48.820;9.244;2023-05-10T12:13:53;18.10;99.90
7194;DHT22;3638;48.820;9.244;2023-05-10T12:16:22;18.10;99.90
7194;DHT22;3638;48.820;9.244;2023-05-10T12:18:50;17.80;99.90
7194;DHT22;3638;48.820;9.244;2023-05-10T12:21:20;17.90;99.90
7194;DHT22;3638;48.820;9.244;2023-05-10T12:23:50;17.60;99.90
7194;DHT22;3638;48.820;9.244;2023-05-10T12:26:21;17.40;99.90
7194;DHT22;3638;48.820;9.244;2023-05-10T12:28:49;17.20;99.90
7194;DHT22;3638;48.820;9.244;2023-05-10T12:31:16;17.30;99.90
7194;DHT22;3638;48.820;9.244;2023-05-10T12:33:44;17.30;99.90
7194;DHT22;3638;48.820;9.244;2023-05-10T12:36:13;17.40;99.90
7194;DHT22;3638;48.820;9.244;2023-05-10T12:38:44;17.50;99.90
7194;DHT22;3638;48.820;9.244;2023-05-10T12:41:14;17.90;99.90
7194;DHT22;3638;48.820;9.244;2023-05-10T12:43:42;17.90;99.90
7194;DHT22;3638;48.820;9.244;2023-05-10T12:46:12;17.80;99.90
7194;DHT22;3638;48.820;9.244;2023-05-10T12:48:41;17.80;99.90
7194;DHT22;3638;48.820;9.244;2023-05-10T12:51:09;17.90;99.90
7194;DHT22;3638;48.820;9.244;2023-05-10T12:53:38;18.00;99.90
7194;DHT22;3638;48.820;9.244;2023-05-10T12:56:07;18.40;99.90
7194;DHT22;3638;48.820;9.244;2023-05-10T12:58:34;18.40;99.90
7194;DHT22;3638;48.820;9.244;2023-05-10T13:01:01;18.30;99.90
7194;DHT22;3638;48.820;9.244;2023-05-10T13:03:28;18.30;99.90
7194;DHT22;3638;48.820;9.244;2023-05-10T13:05:55;18.10;99.90
7194;DHT22;3638;48.820;9.244;2023-05-10T13:08:21;18.20;99.90
7194;DHT22;3638;48.820;9.244;2023-05-10T13:10:48;18.00;99.90
7194;DHT22;3638;48.820;9.244;2023-05-10T13:13:17;17.60;99.90
7194;DHT22;3638;48.820;9.244;2023-05-10T13:15:43;17.60;99.90
7194;DHT22;3638;48.820;9.244;2023-05-10T13:18:10;17.60;99.90
7194;DHT22;3638;48.820;9.244;2023-05-10T13:20:37;17.70;99.90
7194;DHT22;3638;48.820;9.244;2023-05-10T13:23:04;17.90;99.90
7194;DHT22;3638;48.820;9.244;2023-05-10T13:25:31;17.70;99.90
7194;DHT22;3638;48.820;9.244;2023-05-10T13:27:59;17.90;99.90
7194;DHT22;3638;48.820;9.244;2023-05-10T13:30:28;17.70;99.90
7194;DHT22;3638;48.820;9.244;2023-05-10T13:32:55;17.80;99.90
7194;DHT22;3638;48.820;9.244;2023-05-10T13:35:22;17.80;99.90
7194;DHT22;3638;48.820;9.244;2023-05-10T13:37:49;17.70;99.90
7194;DHT22;3638;48.820;9.244;2023-05-10T13:40:16;17.80;99.90
7194;DHT22;3638;48.820;9.244;2023-05-10T13:42:43;17.70;99.90
7194;DHT22;3638;48.820;9.244;2023-05-10T13:45:10;17.70;99.90
7194;DHT22;3638;48.820;9.244;2023-05-10T13:47:39;17.80;99.90
7194;DHT22;3638;48.820;9.244;2023-05-10T13:50:07;17.80;99.90
7194;DHT22;3638;48.820;9.244;2023-05-10T13:52:34;17.80;99.90
7194;DHT22;3638;48.820;9.244;2023-05-10T13:55:01;17.80;99.90
7194;DHT22;3638;48.820;9.244;2023-05-10T13:57:28;17.90;99.90
7194;DHT22;3638;48.820;9.244;2023-05-10T13:59:55;18.00;99.90
7194;DHT22;3638;48.820;9.244;2023-05-10T14:02:22;18.20;99.90
7194;DHT22;3638;48.820;9.244;2023-05-10T14:04:51;18.20;99.90
7194;DHT22;3638;48.820;9.244;2023-05-10T14:07:18;18.50;99.90
7194;DHT22;3638;48.820;9.244;2023-05-10T14:09:45;18.30;99.90
7194;DHT22;3638;48.820;9.244;2023-05-10T14:12:11;18.10;99.90
7194;DHT22;3638;48.820;9.244;2023-05-10T14:14:39;18.10;99.90
7194;DHT22;3638;48.820;9.244;2023-05-10T14:17:06;18.00;99.90
7194;DHT22;3638;48.820;9.244;2023-05-10T14:19:33;18.00;99.90
7194;DHT22;3638;48.820;9.244;2023-05-10T14:22:02;18.00;99.90
7194;DHT22;3638;48.820;9.244;2023-05-10T14:24:29;18.00;99.90
7194;DHT22;3638;48.820;9.244;2023-05-10T14:26:55;18.10;99.90
7194;DHT22;3638;48.820;9.244;2023-05-10T14:29:22;18.30;99.90
7194;DHT22;3638;48.820;9.244;2023-05-10T14:31:49;18.50;99.90
7194;DHT22;3638;48.820;9.244;2023-05-10T14:34:16;18.30;99.90
7194;DHT22;3638;48.820;9.244;2023-05-10T14:36:43;18.30;99.90
7194;DHT22;3638;48.820;9.244;2023-05-10T14:39:11;18.60;99.90
7194;DHT22;3638;48.820;9.244;2023-05-10T14:41:39;18.60;99.90
7194;DHT22;3638;48.820;9.244;2023-05-10T14:46:35;18.70;99.90
7194;DHT22;3638;48.820;9.244;2023-05-10T14:49:02;18.60;99.90
7194;DHT22;3638;48.820;9.244;2023-05-10T14:51:29;18.60;99.90
7194;DHT22;3638;48.820;9.244;2023-05-10T14:53:57;18.50;99.90
7194;DHT22;3638;48.820;9.244;2023-05-10T14:56:25;18.60;99.90
7194;DHT22;3638;48.820;9.244;2023-05-10T14:58:53;18.30;99.90
7194;DHT22;3638;48.820;9.244;2023-05-10T15:01:20;18.40;99.90
7194;DHT22;3638;48.820;9.244;2023-05-10T15:03:46;18.30;99.90
7194;DHT22;3638;48.820;9.244;2023-05-10T15:06:14;18.30;99.90
7194;DHT22;3638;48.820;9.244;2023-05-10T15:08:42;18.00;99.90
7194;DHT22;3638;48.820;9.244;2023-05-10T15:11:08;18.00;99.90
7194;DHT22;3638;48.820;9.244;2023-05-10T15:13:37;18.10;99.90
7194;DHT22;3638;48.820;9.244;2023-05-10T15:16:04;18.40;99.90
7194;DHT22;3638;48.820;9.244;2023-05-10T15:18:31;18.50;99.90
7194;DHT22;3638;48.820;9.244;2023-05-10T15:20:58;18.40;99.90
7194;DHT22;3638;48.820;9.244;2023-05-10T15:23:25;18.60;99.90
7194;DHT22;3638;48.820;9.244;2023-05-10T15:25:52;18.70;99.90
7194;DHT22;3638;48.820;9.244;2023-05-10T15:28:20;18.40;99.90
7194;DHT22;3638;48.820;9.244;2023-05-10T15:30:49;18.50;99.90
7194;DHT22;3638;48.820;9.244;2023-05-10T15:33:16;18.60;99.90
7194;DHT22;3638;48.820;9.244;2023-05-10T15:35:43;18.20;99.90
7194;DHT22;3638;48.820;9.244;2023-05-10T15:38:10;18.40;99.90
7194;DHT22;3638;48.820;9.244;2023-05-10T15:40:37;18.50;99.90
7194;DHT22;3638;48.820;9.244;2023-05-10T15:43:04;19.70;99.90
7194;DHT22;3638;48.820;9.244;2023-05-10T15:45:31;18.80;99.90
7194;DHT22;3638;48.820;9.244;2023-05-10T15:48:00;18.10;99.90
7194;DHT22;3638;48.820;9.244;2023-05-10T15:50:26;18.20;99.90
7194;DHT22;3638;48.820;9.244;2023-05-10T15:52:53;18.40;99.90
7194;DHT22;3638;48.820;9.244;2023-05-10T15:55:20;18.50;99.90
7194;DHT22;3638;48.820;9.244;2023-05-10T15:57:47;18.40;99.90
7194;DHT22;3638;48.820;9.244;2023-05-10T16:00:15;18.60;99.90
7194;DHT22;3638;48.820;9.244;2023-05-10T16:02:55;18.60;99.90
7194;DHT22;3638;48.820;9.244;2023-05-10T16:05:24;18.40;99.90
7194;DHT22;3638;48.820;9.244;2023-05-10T16:07:51;18.40;99.90
7194;DHT22;3638;48.820;9.244;2023-05-10T16:10:19;18.20;99.90
7194;DHT22;3638;48.820;9.244;2023-05-10T16:12:46;18.10;99.90
7194;DHT22;3638;48.820;9.244;2023-05-10T16:15:13;17.70;99.90
7194;DHT22;3638;48.820;9.244;2023-05-10T16:17:40;17.40;99.90
7194;DHT22;3638;48.820;9.244;2023-05-10T16:20:08;17.40;99.90
7194;DHT22;3638;48.820;9.244;2023-05-10T16:22:36;17.30;99.90
7194;DHT22;3638;48.820;9.244;2023-05-10T16:25:04;17.30;99.90
7194;DHT22;3638;48.820;9.244;2023-05-10T16:27:32;17.30;99.90
7194;DHT22;3638;48.820;9.244;2023-05-10T16:30:01;18.00;99.90
7194;DHT22;3638;48.820;9.244;2023-05-10T16:32:28;17.10;99.90
7194;DHT22;3638;48.820;9.244;2023-05-10T16:34:55;16.90;99.90
7194;DHT22;3638;48.820;9.244;2023-05-10T16:37:22;17.00;99.90
7194;DHT22;3638;48.820;9.244;2023-05-10T16:39:50;17.10;99.90
7194;DHT22;3638;48.820;9.244;2023-05-10T16:42:17;17.30;99.90
7194;DHT22;3638;48.820;9.244;2023-05-10T16:44:44;17.20;99.90
7194;DHT22;3638;48.820;9.244;2023-05-10T16:47:11;17.20;99.90
7194;DHT22;3638;48.820;9.244;2023-05-10T16:49:37;16.90;99.90
7194;DHT22;3638;48.820;9.244;2023-05-10T16:52:05;16.80;99.90
7194;DHT22;3638;48.820;9.244;2023-05-10T16:54:31;16.80;99.90
7194;DHT22;3638;48.820;9.244;2023-05-10T16:57:00;17.00;99.90
7194;DHT22;3638;48.820;9.244;2023-05-10T16:59:26;17.10;99.90
7194;DHT22;3638;48.820;9.244;2023-05-10T17:01:54;17.20;99.90
7194;DHT22;3638;48.820;9.244;2023-05-10T17:04:21;17.20;99.90
7194;DHT22;3638;48.820;9.244;2023-05-10T17:06:48;17.00;99.90
7194;DHT22;3638;48.820;9.244;2023-05-10T17:11:42;16.60;99.90
7194;DHT22;3638;48.820;9.244;2023-05-10T17:14:10;16.80;99.90
7194;DHT22;3638;48.820;9.244;2023-05-10T17:16:37;16.80;99.90
7194;DHT22;3638;48.820;9.244;2023-05-10T17:19:04;16.80;99.90
7194;DHT22;3638;48.820;9.244;2023-05-10T17:21:31;16.80;99.90
7194;DHT22;3638;48.820;9.244;2023-05-10T17:23:58;16.90;99.90
7194;DHT22;3638;48.820;9.244;2023-05-10T17:26:25;16.80;99.90
7194;DHT22;3638;48.820;9.244;2023-05-10T17:28:54;16.70;99.90
7194;DHT22;3638;48.820;9.244;2023-05-10T17:31:23;16.60;99.90
7194;DHT22;3638;48.820;9.244;2023-05-10T17:33:49;16.50;99.90
7194;DHT22;3638;48.820;9.244;2023-05-10T17:36:17;16.50;99.90
7194;DHT22;3638;48.820;9.244;2023-05-10T17:38:44;16.50;99.90
7194;DHT22;3638;48.820;9.244;2023-05-10T17:41:12;16.50;99.90
7194;DHT22;3638;48.820;9.244;2023-05-10T17:43:39;16.60;99.90
7194;DHT22;3638;48.820;9.244;2023-05-10T17:46:06;16.50;99.90
7194;DHT22;3638;48.820;9.244;2023-05-10T17:48:34;16.60;99.90
7194;DHT22;3638;48.820;9.244;2023-05-10T17:51:02;16.50;99.90
7194;DHT22;3638;48.820;9.244;2023-05-10T17:53:29;16.60;99.90
7194;DHT22;3638;48.820;9.244;2023-05-10T17:55:56;17.10;99.90
7194;DHT22;3638;48.820;9.244;2023-05-10T17:58:26;16.50;99.90